Time;durP1;ratioP1;P1;durP2;ratioP2;P2;SDS_P1;SDS_P2;PMS_P1;PMS_P2;Temp;Humidity;BMP_temperature;BMP_pressure;BME280_temperature;BME280_humidity;BME280_pressure;Samples;Min_cycle;Max_cycle;Signal;HPM_P1;HPM_P2
2023/05/08 05:31:32;;;;;;;1.30;1.23;;;;;;;10.09;100.00;100529.19;3222088;27;20459;-87
2023/05/08 05:33:58;;;;;;;1.00;0.98;;;;;;;10.20;100.00;100543.66;4843155;29;20049;-87
2023/05/08 05:36:24;;;;;;;1.65;1.55;;;;;;;10.20;100.00;100529.81;4859495;29;20037;-86
2023/05/08 05:38:50;;;;;;;1.63;1.52;;;;;;;10.27;100.00;100529.66;4858215;29;20423;-87
2023/05/08 05:41:15;;;;;;;1.75;1.15;;;;;;;10.25;100.00;100529.31;4856981;29;20132;-87
2023/05/08 05:43:41;;;;;;;0.30;0.30;;;;;;;10.39;100.00;100530.28;4844551;29;20500;-87
2023/05/08 05:46:08;;;;;;;2.50;0.98;;;;;;;10.42;100.00;100551.63;4845801;29;20128;-87
2023/05/08 05:48:34;;;;;;;2.00;1.73;;;;;;;10.29;100.00;100535.59;4846725;29;20511;-87
2023/05/08 05:51:00;;;;;;;1.73;1.52;;;;;;;10.06;100.00;100504.28;4853592;29;20080;-88
2023/05/08 05:53:26;;;;;;;0.75;0.75;;;;;;;10.41;100.00;100550.03;4860170;29;20045;-87
2023/05/08 05:55:52;;;;;;;1.13;0.88;;;;;;;10.50;100.00;100548.28;4848756;29;20082;-87
2023/05/08 05:58:19;;;;;;;0.75;0.75;;;;;;;10.68;100.00;100547.94;4861134;29;20127;-87
2023/05/08 06:00:47;;;;;;;2.85;1.90;;;;;;;10.89;100.00;100530.09;4886649;29;20052;-96
2023/05/08 07:43:24;;;;;;;1.13;1.02;;;;;;;15.05;66.07;100585.66;4178501;27;20053;-92
2023/05/08 07:45:50;;;;;;;3.85;1.17;;;;;;;15.12;66.63;100577.03;4861970;29;20045;-93
2023/05/08 07:48:16;;;;;;;1.17;0.63;;;;;;;15.07;66.88;100563.66;4858585;29;20037;-91
2023/05/08 07:50:42;;;;;;;0.40;0.30;;;;;;;15.16;68.34;100589.66;4859340;29;20049;-92
2023/05/08 07:53:07;;;;;;;0.88;0.47;;;;;;;14.91;66.73;100576.59;4876602;29;20494;-93
2023/05/08 07:55:33;;;;;;;1.65;1.55;;;;;;;14.83;67.17;100564.09;4862144;29;20107;-92
2023/05/08 07:57:58;;;;;;;0.52;0.40;;;;;;;15.00;70.11;100594.66;4873946;29;20092;-93
2023/05/08 08:00:26;;;;;;;1.02;0.95;;;;;;;15.20;68.96;100581.13;4877596;29;20049;-93
2023/05/08 08:02:51;;;;;;;0.93;0.70;;;;;;;15.31;68.27;100585.09;4885850;29;20068;-93
2023/05/08 08:05:17;;;;;;;1.67;1.38;;;;;;;15.71;66.59;100592.78;4889463;29;20509;-92
2023/05/08 08:07:42;;;;;;;0.95;0.68;;;;;;;15.98;63.24;100580.94;4862093;29;20048;-92
2023/05/08 08:10:08;;;;;;;0.93;0.90;;;;;;;16.23;64.08;100597.50;4861480;29;20033;-93
2023/05/08 08:12:34;;;;;;;2.05;1.63;;;;;;;16.02;62.37;100578.75;4870088;29;20583;-94
2023/05/08 08:14:59;;;;;;;0.43;0.32;;;;;;;16.07;63.80;100584.53;4888291;29;20494;-93
2023/05/08 08:17:25;;;;;;;0.40;0.40;;;;;;;15.95;62.47;100565.06;4892021;29;20048;-92
2023/05/08 08:19:50;;;;;;;0.43;0.43;;;;;;;16.26;61.86;100588.94;4875967;29;20041;-93
2023/05/08 08:22:16;;;;;;;0.70;0.70;;;;;;;16.42;62.12;100564.72;4875748;29;20040;-93
2023/05/08 08:24:41;;;;;;;2.65;1.17;;;;;;;16.76;61.45;100589.69;4890294;29;20060;-93
2023/05/08 08:27:07;;;;;;;0.98;0.55;;;;;;;16.75;59.71;100583.28;4883658;29;20068;-93
2023/05/08 08:29:32;;;;;;;1.17;1.08;;;;;;;16.79;60.80;100580.34;4862791;29;20506;-92
2023/05/08 08:31:59;;;;;;;0.50;0.50;;;;;;;16.96;59.83;100575.19;4870183;29;20783;-93
2023/05/08 08:34:25;;;;;;;0.40;0.40;;;;;;;17.08;58.58;100565.84;4888741;29;20045;-92
2023/05/08 08:36:50;;;;;;;1.00;0.73;;;;;;;17.29;57.95;100595.72;4875665;29;20039;-92
2023/05/08 08:39:16;;;;;;;0.80;0.80;;;;;;;17.46;57.04;100580.13;4872253;29;20084;-92
2023/05/08 08:41:41;;;;;;;0.43;0.43;;;;;;;17.44;58.12;100576.22;4876249;29;20042;-92
2023/05/08 08:44:07;;;;;;;1.00;0.77;;;;;;;17.54;57.39;100578.53;4890727;29;20086;-91
2023/05/08 08:46:34;;;;;;;2.05;1.80;;;;;;;17.63;56.00;100556.09;4880849;29;20112;-92
2023/05/08 08:49:03;;;;;;;0.65;0.65;;;;;;;17.71;57.59;100565.72;4878891;29;20049;-92
2023/05/08 08:51:35;;;;;;;1.52;0.88;;;;;;;17.67;56.38;100548.28;4880460;29;20048;-92
2023/05/08 08:54:12;;;;;;;0.73;0.73;;;;;;;18.04;57.16;100578.97;4879197;29;20933;-93
2023/05/08 08:56:43;;;;;;;0.75;0.75;;;;;;;18.30;55.03;100571.69;4876420;29;20044;-91
2023/05/08 08:59:10;;;;;;;0.98;0.95;;;;;;;18.46;54.06;100582.50;4879642;29;20048;-93
2023/05/08 09:01:38;;;;;;;0.75;0.32;;;;;;;18.48;54.63;100582.78;4867253;29;20037;-92
2023/05/08 09:04:04;;;;;;;0.47;0.47;;;;;;;18.25;53.75;100552.66;4882432;29;20054;-92
2023/05/08 09:06:30;;;;;;;1.05;0.95;;;;;;;18.53;54.32;100573.72;4896595;29;20036;-92
2023/05/08 09:08:56;;;;;;;0.73;0.70;;;;;;;18.41;52.95;100576.75;4882810;29;20500;-92
2023/05/08 09:11:23;;;;;;;0.32;0.32;;;;;;;18.66;53.69;100587.53;4895553;29;20099;-92
2023/05/08 09:13:49;;;;;;;1.38;0.88;;;;;;;18.60;52.19;100573.38;4867369;29;20135;-92
2023/05/08 09:16:17;;;;;;;1.67;1.17;;;;;;;18.53;53.41;100576.53;4897138;29;20123;-91
2023/05/08 09:18:43;;;;;;;0.63;0.40;;;;;;;18.57;52.73;100588.38;4864057;29;20104;-92
2023/05/08 09:21:09;;;;;;;0.85;0.75;;;;;;;17.87;53.90;100578.63;4915753;29;20454;-93
2023/05/08 09:23:35;;;;;;;2.58;1.05;;;;;;;17.69;55.43;100587.09;4881570;29;20075;-91
2023/05/08 09:26:01;;;;;;;1.05;0.95;;;;;;;17.64;56.61;100582.88;4883141;29;20151;-93
2023/05/08 09:28:26;;;;;;;0.55;0.55;;;;;;;18.00;55.52;100575.56;4882384;29;20500;-93
2023/05/08 09:30:56;;;;;;;0.47;0.47;;;;;;;18.33;55.88;100579.13;4878202;29;20053;-92
2023/05/08 09:33:24;;;;;;;1.95;1.55;;;;;;;18.39;53.34;100582.88;4877338;29;20055;-93
2023/05/08 09:35:50;;;;;;;0.73;0.73;;;;;;;18.27;53.65;100572.63;4881646;29;20032;-92
2023/05/08 09:38:42;;;;;;;1.67;0.60;;;;;;;18.35;54.72;100581.47;4879781;29;20052;-92
2023/05/08 09:41:09;;;;;;;0.73;0.73;;;;;;;18.35;54.17;100582.25;4884864;29;20048;-93
2023/05/08 09:43:35;;;;;;;3.38;2.03;;;;;;;18.66;52.84;100589.56;4896124;29;20044;-93
2023/05/08 09:46:23;;;;;;;1.85;1.13;;;;;;;18.91;53.13;100577.81;4895991;29;20078;-92
2023/05/08 09:49:02;;;;;;;1.88;1.60;;;;;;;19.08;51.84;100592.97;4876825;29;20044;-92
2023/05/08 09:51:29;;;;;;;0.47;0.47;;;;;;;19.05;51.43;100589.09;4883534;29;20116;-92
2023/05/08 09:53:59;;;;;;;0.60;0.60;;;;;;;18.40;52.00;100572.41;4887706;29;20032;-92
2023/05/08 09:56:35;;;;;;;1.98;1.33;;;;;;;18.44;53.01;100562.53;4876108;29;20376;-93
2023/05/08 09:59:05;;;;;;;1.55;1.15;;;;;;;18.90;53.26;100590.31;4877246;29;20057;-93
2023/05/08 10:01:35;;;;;;;0.95;0.73;;;;;;;19.19;51.93;100569.91;4880008;29;20044;-94
2023/05/08 10:04:01;;;;;;;0.65;0.50;;;;;;;19.54;49.93;100532.19;4891309;29;20055;-94
2023/05/08 10:06:27;;;;;;;1.30;1.20;;;;;;;20.02;48.57;100565.69;4869738;29;20040;-92
2023/05/08 10:09:12;;;;;;;0.98;0.63;;;;;;;20.37;49.53;100566.50;4900301;29;20437;-94
2023/05/08 10:11:51;;;;;;;0.88;0.82;;;;;;;20.24;47.42;100557.56;4900018;29;20059;-93
2023/05/08 10:14:18;;;;;;;0.88;0.82;;;;;;;20.04;48.40;100582.88;4881759;29;20048;-94
2023/05/08 10:16:45;;;;;;;0.70;0.70;;;;;;;19.90;48.30;100573.19;4872806;29;20051;-93
2023/05/08 10:19:13;;;;;;;1.25;1.02;;;;;;;19.93;47.16;100572.25;4861631;29;20060;-92
2023/05/08 10:21:42;;;;;;;0.47;0.40;;;;;;;19.99;48.78;100569.50;4870419;29;20497;-94
2023/05/08 10:24:16;;;;;;;0.90;0.90;;;;;;;20.19;48.48;100566.72;4866220;29;20195;-93
2023/05/08 10:26:43;;;;;;;1.00;0.80;;;;;;;20.51;48.07;100561.25;4888024;29;20109;-93
2023/05/08 10:29:17;;;;;;;3.53;1.50;;;;;;;20.37;46.46;100549.59;4864210;29;20131;-93
2023/05/08 10:31:45;;;;;;;1.27;1.15;;;;;;;20.40;47.74;100531.69;4881685;29;20480;-93
2023/05/08 10:34:15;;;;;;;0.68;0.57;;;;;;;20.17;47.27;100524.19;4897050;29;20043;-94
2023/05/08 10:36:40;;;;;;;0.95;0.80;;;;;;;20.37;45.82;100552.41;4885857;29;20575;-93
2023/05/08 10:39:06;;;;;;;1.20;0.50;;;;;;;20.18;49.28;100542.63;4860901;29;20040;-93
2023/05/08 10:41:32;;;;;;;0.40;0.40;;;;;;;20.29;48.60;100516.69;4897889;29;20036;-93
2023/05/08 10:43:58;;;;;;;1.10;0.90;;;;;;;20.37;47.92;100543.94;4913759;29;20063;-92
2023/05/08 10:46:39;;;;;;;0.65;0.65;;;;;;;20.40;47.04;100526.06;4877838;29;20056;-93
2023/05/08 10:49:07;;;;;;;5.18;1.52;;;;;;;20.49;46.91;100530.78;4881300;29;20046;-93
2023/05/08 10:52:06;;;;;;;2.15;1.95;;;;;;;20.63;47.89;100543.22;4912495;29;20600;-93
2023/05/08 10:54:50;;;;;;;0.82;0.70;;;;;;;20.69;46.51;100541.25;4890663;29;20127;-94
2023/05/08 10:57:16;;;;;;;1.20;1.05;;;;;;;20.81;47.79;100542.94;4874344;29;20052;-93
2023/05/08 10:59:46;;;;;;;0.98;0.95;;;;;;;20.54;46.49;100551.84;4886677;29;20405;-94
2023/05/08 11:02:12;;;;;;;3.00;1.25;;;;;;;19.79;48.53;100538.47;4892106;29;20080;-92
2023/05/08 11:04:37;;;;;;;2.10;1.25;;;;;;;19.68;49.59;100543.94;4878302;29;20132;-93
2023/05/08 11:07:03;;;;;;;0.70;0.70;;;;;;;19.96;48.67;100551.53;4895262;29;20516;-93
2023/05/08 11:09:49;;;;;;;1.55;1.35;;;;;;;19.44;50.09;100524.38;4875970;29;20032;-93
2023/05/08 11:12:32;;;;;;;1.45;0.82;;;;;;;19.94;49.20;100556.88;4903848;29;20052;-93
2023/05/08 11:15:08;;;;;;;0.50;0.50;;;;;;;19.95;48.58;100532.31;4877493;29;20049;-92
2023/05/08 11:17:34;;;;;;;1.20;1.00;;;;;;;20.16;48.88;100547.97;4863063;29;20466;-94
2023/05/08 11:20:02;;;;;;;1.80;1.00;;;;;;;20.22;49.17;100543.19;4873323;29;20119;-93
2023/05/08 11:22:31;;;;;;;1.95;1.17;;;;;;;20.46;48.11;100535.34;4884399;29;20060;-93
2023/05/08 11:25:02;;;;;;;0.73;0.73;;;;;;;20.65;47.13;100530.19;4886886;29;20416;-94
2023/05/08 11:27:39;;;;;;;1.27;0.95;;;;;;;21.36;46.45;100537.88;4884447;29;20044;-93
2023/05/08 11:30:24;;;;;;;0.35;0.25;;;;;;;21.02;45.06;100532.41;4897121;29;20067;-94
2023/05/08 11:32:58;;;;;;;1.15;0.82;;;;;;;20.77;46.65;100529.06;4888129;29;20049;-92
2023/05/08 11:35:42;;;;;;;2.28;1.27;;;;;;;20.86;46.70;100530.94;4854441;29;20081;-92
2023/05/08 11:38:18;;;;;;;1.38;1.25;;;;;;;20.33;47.38;100532.13;4893294;29;20052;-92
2023/05/08 11:41:12;;;;;;;2.50;2.03;;;;;;;20.73;48.85;100524.91;4901147;29;20048;-93
2023/05/08 11:44:20;;;;;;;1.75;1.48;;;;;;;20.74;47.93;100524.41;4861505;29;20048;-92
2023/05/08 11:46:53;;;;;;;0.82;0.82;;;;;;;20.52;47.66;100514.91;4859981;29;20083;-92
2023/05/08 11:49:21;;;;;;;1.75;1.23;;;;;;;20.45;48.49;100513.31;4900198;29;20043;-92
2023/05/08 11:51:49;;;;;;;0.32;0.32;;;;;;;20.31;50.33;100506.47;4890363;29;20076;-92
2023/05/08 11:54:17;;;;;;;1.30;1.25;;;;;;;20.42;48.82;100525.56;4879112;29;20044;-91
2023/05/08 11:56:45;;;;;;;0.60;0.60;;;;;;;20.53;47.33;100527.75;4885794;29;20045;-93
2023/05/08 11:59:12;;;;;;;1.42;1.33;;;;;;;20.63;49.16;100498.13;4863763;29;20065;-93
2023/05/08 12:01:38;;;;;;;1.20;1.10;;;;;;;20.20;47.81;100520.38;4857727;29;20040;-92
2023/05/08 12:04:05;;;;;;;0.65;0.65;;;;;;;20.13;49.92;100515.19;4891436;29;20406;-93
2023/05/08 12:06:37;;;;;;;0.75;0.75;;;;;;;20.21;49.32;100513.50;4873418;29;20145;-92
2023/05/08 12:09:10;;;;;;;0.60;0.60;;;;;;;20.29;50.02;100520.28;4872177;29;20036;-92
2023/05/08 12:11:35;;;;;;;1.70;1.47;;;;;;;20.27;49.81;100508.69;4869516;29;20061;-93
2023/05/08 12:14:01;;;;;;;1.30;1.13;;;;;;;19.94;50.66;100519.50;4869645;29;20117;-93
2023/05/08 12:16:34;;;;;;;0.88;0.88;;;;;;;20.03;51.85;100508.09;4888618;29;20049;-92
2023/05/08 12:18:59;;;;;;;2.72;0.80;;;;;;;19.62;51.47;100515.69;4881510;29;20049;-92
2023/05/08 12:21:28;;;;;;;2.38;0.93;;;;;;;19.30;53.00;100513.84;4897117;29;20053;-92
2023/05/08 12:23:54;;;;;;;0.52;0.52;;;;;;;19.34;53.94;100492.72;4876169;29;20057;-92
2023/05/08 12:26:21;;;;;;;1.25;1.13;;;;;;;19.82;52.56;100512.16;4871391;29;20465;-93
2023/05/08 12:28:55;;;;;;;0.32;0.32;;;;;;;19.89;52.08;100492.06;4880898;29;20593;-92
2023/05/08 12:31:22;;;;;;;1.13;0.88;;;;;;;20.44;50.98;100526.63;4898452;29;20051;-91
2023/05/08 12:33:47;;;;;;;1.33;1.17;;;;;;;20.60;50.26;100496.31;4894343;29;20123;-93
2023/05/08 12:36:13;;;;;;;3.20;1.20;;;;;;;20.41;49.98;100521.19;4898438;29;20187;-93
2023/05/08 12:38:39;;;;;;;0.90;0.90;;;;;;;20.20;51.16;100483.75;4861787;29;20518;-92
2023/05/08 12:41:09;;;;;;;0.88;0.80;;;;;;;20.68;50.24;100522.78;4879009;29;20045;-93
2023/05/08 12:43:36;;;;;;;0.68;0.65;;;;;;;20.77;49.53;100519.81;4892029;29;20048;-92
2023/05/08 12:46:03;;;;;;;1.77;1.27;;;;;;;20.60;49.64;100501.94;4879328;29;20040;-92
2023/05/08 12:48:29;;;;;;;0.73;0.73;;;;;;;20.63;50.28;100512.22;4861323;29;20040;-94
2023/05/08 12:51:02;;;;;;;0.98;0.90;;;;;;;20.59;49.99;100520.88;4894311;29;20120;-93
2023/05/08 12:53:29;;;;;;;0.60;0.57;;;;;;;20.56;50.69;100504.97;4853857;29;20033;-93
2023/05/08 12:55:57;;;;;;;0.85;0.60;;;;;;;21.04;52.29;100510.88;4874880;29;20052;-93
2023/05/08 12:58:28;;;;;;;3.45;2.22;;;;;;;20.90;48.83;100500.50;4876059;29;20520;-92
2023/05/08 13:01:12;;;;;;;1.15;1.05;;;;;;;20.88;48.74;100503.03;4878561;29;20533;-93
2023/05/08 13:03:40;;;;;;;6.93;2.65;;;;;;;21.19;49.21;100505.91;4871283;29;20049;-94
2023/05/08 13:06:21;;;;;;;0.35;0.35;;;;;;;21.11;48.51;100499.13;4864040;29;20041;-92
2023/05/08 13:08:55;;;;;;;0.90;0.90;;;;;;;20.43;49.39;100487.66;4877213;29;20098;-93
2023/05/08 13:11:33;;;;;;;2.05;1.83;;;;;;;20.32;51.07;100487.53;4864290;29;20045;-93
2023/05/08 13:14:01;;;;;;;1.85;1.75;;;;;;;20.69;50.50;100510.25;4863388;29;20093;-94
2023/05/08 13:16:27;;;;;;;0.52;0.52;;;;;;;20.90;49.01;100501.28;4875944;29;20037;-94
2023/05/08 13:18:52;;;;;;;0.65;0.55;;;;;;;20.88;49.62;100503.03;4871519;29;20513;-93
2023/05/08 13:21:18;;;;;;;1.17;0.85;;;;;;;21.08;48.71;100488.09;4850253;29;20056;-93
2023/05/08 13:23:43;;;;;;;3.42;1.15;;;;;;;21.19;47.77;100505.16;4874042;29;20064;-94
2023/05/08 13:26:12;;;;;;;1.42;0.88;;;;;;;21.14;47.83;100495.38;4875883;29;20080;-95
2023/05/08 13:28:37;;;;;;;1.27;1.17;;;;;;;21.43;48.77;100485.09;4870668;29;20032;-95
2023/05/08 13:31:03;;;;;;;0.98;0.98;;;;;;;21.52;48.27;100488.47;4877746;29;20056;-95
2023/05/08 13:33:28;;;;;;;1.25;0.98;;;;;;;21.48;47.95;100471.00;4860811;29;20072;-94
2023/05/08 13:35:55;;;;;;;0.80;0.80;;;;;;;21.37;46.70;100479.41;4894331;29;20124;-94
2023/05/08 13:38:20;;;;;;;0.57;0.57;;;;;;;21.11;47.02;100482.22;4861604;29;20064;-95
2023/05/08 13:40:46;;;;;;;1.08;0.90;;;;;;;21.34;47.59;100486.81;4869842;29;20041;-94
2023/05/08 13:43:11;;;;;;;1.10;0.68;;;;;;;21.69;48.13;100478.09;4886861;29;20045;-95
2023/05/08 13:45:37;;;;;;;0.88;0.73;;;;;;;21.81;47.22;100447.88;4862016;29;20053;-95
2023/05/08 13:48:02;;;;;;;1.48;1.23;;;;;;;22.02;46.03;100473.94;4873225;29;20115;-95
2023/05/08 13:50:28;;;;;;;1.80;1.70;;;;;;;21.69;46.41;100440.59;4846345;29;20112;-95
2023/05/08 13:52:54;;;;;;;1.13;0.80;;;;;;;21.81;44.61;100462.00;4889555;29;20386;-95
2023/05/08 13:55:21;;;;;;;0.60;0.60;;;;;;;21.77;44.88;100441.69;4860027;29;20049;-95
2023/05/08 13:57:47;;;;;;;1.38;0.93;;;;;;;21.92;45.32;100453.59;4856834;29;20084;-95
2023/05/08 14:00:13;;;;;;;0.90;0.57;;;;;;;21.76;44.53;100474.00;4871112;29;20044;-95
2023/05/08 14:02:39;;;;;;;0.80;0.80;;;;;;;21.92;46.54;100470.56;4874258;29;20040;-95
2023/05/08 14:05:07;;;;;;;3.50;2.10;;;;;;;21.62;46.08;100472.91;4855367;29;20112;-96
2023/05/08 14:07:32;;;;;;;1.50;0.73;;;;;;;21.60;46.39;100454.91;4861040;29;20075;-95
2023/05/08 14:10:15;;;;;;;0.50;0.50;;;;;;;21.70;46.14;100442.16;4875586;29;20072;-94
2023/05/08 14:12:41;;;;;;;1.52;1.42;;;;;;;21.96;45.52;100450.56;4869669;29;20127;-96
2023/05/08 14:15:07;;;;;;;0.45;0.45;;;;;;;22.00;44.37;100457.50;4856820;29;20047;-96
2023/05/08 14:17:33;;;;;;;0.45;0.45;;;;;;;22.17;44.43;100464.00;4873636;29;20053;-95
2023/05/08 14:19:59;;;;;;;2.78;0.80;;;;;;;22.51;43.44;100469.78;4868193;29;20097;-96
2023/05/08 14:22:24;;;;;;;1.55;0.90;;;;;;;22.22;44.83;100460.44;4873702;29;20795;-95
2023/05/08 14:24:50;;;;;;;0.55;0.52;;;;;;;22.16;45.27;100462.44;4870844;29;20041;-95
2023/05/08 14:27:16;;;;;;;1.80;1.17;;;;;;;22.25;44.75;100462.25;4869463;29;20045;-95
2023/05/08 14:29:41;;;;;;;1.95;1.38;;;;;;;22.00;44.53;100449.03;4873222;29;20045;-95
2023/05/08 14:32:08;;;;;;;1.42;1.00;;;;;;;21.58;45.77;100432.09;4863546;29;20520;-95
2023/05/08 14:34:36;;;;;;;0.43;0.43;;;;;;;21.38;47.12;100464.78;4856806;29;20056;-95
2023/05/08 14:37:01;;;;;;;0.73;0.65;;;;;;;21.42;46.07;100466.59;4863168;29;20498;-96
2023/05/08 14:39:27;;;;;;;1.17;0.77;;;;;;;21.07;46.25;100453.47;4887418;29;20048;-94
2023/05/08 14:41:52;;;;;;;1.15;1.13;;;;;;;20.75;47.84;100458.28;4891752;29;20512;-95
2023/05/08 14:44:18;;;;;;;0.57;0.52;;;;;;;20.52;47.77;100464.97;4859003;29;20040;-92
2023/05/08 14:46:43;;;;;;;0.60;0.60;;;;;;;20.19;48.65;100458.91;4873953;29;20131;-92
2023/05/08 14:49:09;;;;;;;1.58;1.48;;;;;;;19.53;51.55;100428.59;4887957;29;20036;-96
2023/05/08 14:51:35;;;;;;;2.50;0.70;;;;;;;19.70;51.78;100452.09;4890481;29;20059;-96
2023/05/08 14:54:01;;;;;;;1.02;0.85;;;;;;;19.33;52.66;100451.75;4913003;29;20028;-96
2023/05/08 14:56:27;;;;;;;0.77;0.77;;;;;;;19.28;53.59;100435.59;4895361;29;20059;-96
2023/05/08 14:58:54;;;;;;;0.95;0.80;;;;;;;19.45;53.77;100439.44;4891352;29;20045;-96
2023/05/08 15:01:21;;;;;;;0.50;0.50;;;;;;;19.38;54.83;100439.84;4883097;29;20032;-96
2023/05/08 15:03:52;;;;;;;0.60;0.60;;;;;;;19.28;54.33;100415.13;4892618;29;20124;-96
2023/05/08 15:06:20;;;;;;;1.33;1.08;;;;;;;19.57;54.84;100459.34;4900264;29;20552;-96
2023/05/08 15:08:47;;;;;;;1.40;1.30;;;;;;;19.43;56.15;100442.00;4864562;29;20056;-96
2023/05/08 15:11:13;;;;;;;0.52;0.38;;;;;;;19.32;57.33;100419.31;4888779;29;20052;-96
2023/05/08 15:13:41;;;;;;;3.38;0.95;;;;;;;19.11;54.98;100406.44;4890509;29;20048;-96
2023/05/08 15:16:06;;;;;;;1.30;0.68;;;;;;;18.86;56.77;100413.44;4907290;29;20068;-96
2023/05/08 15:18:32;;;;;;;1.27;1.17;;;;;;;18.96;56.02;100440.19;4865544;29;20044;-96
2023/05/08 15:20:58;;;;;;;0.95;0.95;;;;;;;18.66;58.52;100399.28;4886082;29;20053;-96
2023/05/08 15:23:25;;;;;;;1.95;1.75;;;;;;;18.73;58.40;100415.75;4881200;29;20053;-95
2023/05/08 15:25:51;;;;;;;2.50;1.33;;;;;;;18.67;57.71;100406.47;4890418;29;20100;-96
2023/05/08 15:28:17;;;;;;;0.50;0.50;;;;;;;18.72;57.73;100430.28;4894431;29;20060;-96
2023/05/08 15:30:46;;;;;;;0.73;0.65;;;;;;;18.78;59.08;100437.56;4886770;29;20063;-96
2023/05/08 15:33:12;;;;;;;1.77;1.35;;;;;;;18.87;60.64;100442.31;4876098;29;20523;-95
2023/05/08 15:35:38;;;;;;;1.60;1.40;;;;;;;18.52;58.85;100419.72;4865897;29;20123;-95
2023/05/08 15:38:07;;;;;;;0.55;0.55;;;;;;;18.77;59.57;100450.06;4896552;29;20049;-96
2023/05/08 15:40:33;;;;;;;0.85;0.68;;;;;;;19.06;58.12;100454.91;4886256;29;20052;-97
2023/05/08 15:42:59;;;;;;;0.98;0.82;;;;;;;18.88;58.63;100398.91;4889801;29;20074;-96
2023/05/08 15:45:27;;;;;;;1.30;1.10;;;;;;;19.05;59.10;100403.53;4895488;29;20075;-96
2023/05/08 15:47:53;;;;;;;0.40;0.40;;;;;;;19.03;57.34;100399.66;4908722;29;20072;-96
2023/05/08 15:50:21;;;;;;;2.17;1.02;;;;;;;19.12;58.46;100410.03;4902672;29;20084;-96
2023/05/08 15:52:47;;;;;;;3.20;1.50;;;;;;;19.18;59.78;100406.03;4901389;29;20129;-96
2023/05/08 15:55:17;;;;;;;1.25;0.93;;;;;;;19.22;58.28;100389.72;4907834;29;20025;-96
2023/05/08 15:57:44;;;;;;;1.75;1.02;;;;;;;19.48;56.46;100390.66;4888100;29;20112;-96
2023/05/08 16:00:10;;;;;;;0.43;0.30;;;;;;;19.67;55.15;100412.91;4890165;29;20047;-96
2023/05/08 16:02:38;;;;;;;1.80;1.58;;;;;;;19.39;56.23;100393.56;4904478;29;20044;-96
2023/05/08 16:05:08;;;;;;;1.35;1.25;;;;;;;19.36;55.78;100388.94;4888306;29;20029;-96
2023/05/08 16:07:36;;;;;;;1.00;0.75;;;;;;;19.42;56.19;100448.06;4887371;29;20108;-96
2023/05/08 16:10:02;;;;;;;1.48;1.38;;;;;;;18.97;57.75;100396.75;4875388;29;20051;-96
2023/05/08 16:12:28;;;;;;;0.63;0.57;;;;;;;18.85;60.08;100405.47;4879938;29;20051;-96
2023/05/08 16:14:53;;;;;;;0.63;0.43;;;;;;;18.85;63.48;100442.00;4873741;29;20044;-96
2023/05/08 16:17:19;;;;;;;0.25;0.25;;;;;;;18.79;64.26;100429.91;4870295;29;20159;-96
2023/05/08 16:19:45;;;;;;;0.55;0.55;;;;;;;18.72;64.36;100410.63;4855132;29;20043;-95
2023/05/08 16:22:10;;;;;;;0.30;0.30;;;;;;;18.54;62.41;100420.78;4869302;29;20123;-95
2023/05/08 16:24:36;;;;;;;0.68;0.68;;;;;;;18.54;64.69;100448.88;4865191;29;20033;-96
2023/05/08 16:27:02;;;;;;;1.55;0.82;;;;;;;18.11;67.39;100418.63;4872565;29;20088;-95
2023/05/08 16:29:27;;;;;;;0.52;0.52;;;;;;;18.01;67.34;100403.88;4867655;29;20056;-95
2023/05/08 16:31:53;;;;;;;0.43;0.43;;;;;;;17.84;69.38;100418.81;4848056;29;20045;-96
2023/05/08 16:34:19;;;;;;;1.05;0.95;;;;;;;17.98;70.37;100449.75;4879268;29;20079;-90
2023/05/08 16:36:45;;;;;;;1.05;0.98;;;;;;;17.71;70.77;100427.50;4864278;29;20057;-92
2023/05/08 16:39:11;;;;;;;1.08;0.47;;;;;;;17.65;72.80;100427.34;4862013;29;20042;-91
2023/05/08 16:41:36;;;;;;;0.95;0.90;;;;;;;17.75;72.78;100449.75;4877655;29;20056;-91
2023/05/08 16:44:02;;;;;;;0.90;0.88;;;;;;;17.68;71.39;100439.63;4862099;29;20092;-91
2023/05/08 16:46:27;;;;;;;1.67;0.85;;;;;;;17.71;72.15;100461.91;4864085;29;20104;-89
2023/05/08 16:48:53;;;;;;;0.47;0.30;;;;;;;17.76;74.23;100463.28;4875197;29;20040;-91
2023/05/08 16:51:18;;;;;;;0.85;0.52;;;;;;;17.75;73.44;100466.59;4875488;29;20879;-92
2023/05/08 16:53:44;;;;;;;1.20;1.10;;;;;;;17.70;73.81;100477.22;4877071;29;20123;-91
2023/05/08 16:56:09;;;;;;;2.65;0.77;;;;;;;17.61;73.68;100477.25;4841641;29;20056;-90
2023/05/08 16:58:36;;;;;;;0.95;0.88;;;;;;;17.53;75.87;100483.63;4861194;29;20045;-91
2023/05/08 17:01:02;;;;;;;0.80;0.80;;;;;;;17.50;75.57;100487.41;4853479;29;20132;-91
2023/05/08 17:03:27;;;;;;;2.63;0.60;;;;;;;17.42;75.53;100489.78;4858943;29;20043;-90
2023/05/08 17:05:53;;;;;;;1.05;0.95;;;;;;;17.23;77.05;100477.81;4863216;29;20390;-89
2023/05/08 17:08:18;;;;;;;0.60;0.45;;;;;;;17.08;77.03;100465.72;4861436;29;20045;-91
2023/05/08 17:10:44;;;;;;;0.45;0.45;;;;;;;16.92;76.87;100468.88;4860986;29;20078;-90
2023/05/08 17:13:10;;;;;;;0.60;0.60;;;;;;;16.86;79.02;100467.19;4863483;29;20061;-91
2023/05/08 17:15:35;;;;;;;0.10;0.10;;;;;;;16.85;81.52;100482.44;4879184;29;20064;-90
2023/05/08 17:18:01;;;;;;;0.50;0.50;;;;;;;16.82;81.35;100475.75;4862216;29;20053;-91
2023/05/08 17:20:26;;;;;;;0.32;0.32;;;;;;;16.82;84.20;100481.38;4872642;29;20103;-89
2023/05/08 17:22:52;;;;;;;0.75;0.73;;;;;;;16.69;83.98;100483.56;4864877;29;20397;-89
2023/05/08 17:25:18;;;;;;;0.77;0.77;;;;;;;16.66;86.11;100493.66;4874868;29;20052;-90
2023/05/08 17:27:44;;;;;;;0.93;0.90;;;;;;;16.59;88.89;100479.97;4847221;29;20386;-91
2023/05/08 17:30:10;;;;;;;0.77;0.50;;;;;;;16.47;87.04;100474.50;4878163;29;20037;-91
2023/05/08 17:32:36;;;;;;;0.75;0.73;;;;;;;16.35;86.30;100476.22;4876210;29;20076;-94
2023/05/08 17:35:02;;;;;;;0.32;0.32;;;;;;;16.38;86.67;100492.06;4863158;29;20072;-91
2023/05/08 17:37:27;;;;;;;0.73;0.65;;;;;;;16.34;88.90;100497.81;4863029;29;20124;-91
2023/05/08 17:39:53;;;;;;;0.35;0.32;;;;;;;16.11;88.91;100467.63;4877714;29;20087;-93
2023/05/08 17:42:43;;;;;;;0.60;0.60;;;;;;;16.30;89.40;100499.22;4856990;29;20050;-92
2023/05/08 17:45:09;;;;;;;1.65;1.15;;;;;;;16.18;89.69;100494.53;4845186;29;20055;-92
2023/05/08 17:47:42;;;;;;;2.15;1.85;;;;;;;16.11;91.48;100489.25;4872773;29;20037;-91
2023/05/08 17:50:10;;;;;;;0.50;0.50;;;;;;;15.89;91.25;100489.38;4874041;29;20403;-92
2023/05/08 17:52:45;;;;;;;0.47;0.47;;;;;;;15.99;91.55;100504.94;4857382;29;20049;-92
2023/05/08 17:55:11;;;;;;;3.65;0.95;;;;;;;15.84;93.81;100493.56;4877011;29;20051;-92
2023/05/08 17:57:36;;;;;;;0.73;0.73;;;;;;;15.70;93.75;100494.13;4862339;29;20096;-92
2023/05/08 18:00:03;;;;;;;0.93;0.52;;;;;;;15.81;93.22;100516.84;4879520;29;20105;-93
2023/05/08 18:02:34;;;;;;;0.28;0.28;;;;;;;15.60;94.21;100492.53;4879183;29;20104;-92
2023/05/08 18:05:00;;;;;;;0.70;0.70;;;;;;;15.76;94.54;100520.25;4860323;29;20592;-92
2023/05/08 18:07:25;;;;;;;0.55;0.55;;;;;;;15.44;94.11;100489.97;4872824;29;20461;-92
2023/05/08 18:09:51;;;;;;;0.32;0.32;;;;;;;15.53;95.39;100511.63;4863202;29;20043;-91
2023/05/08 18:12:16;;;;;;;1.27;0.77;;;;;;;15.41;95.20;100497.22;4876176;29;20045;-91
2023/05/08 18:14:46;;;;;;;0.40;0.40;;;;;;;15.46;96.79;100523.03;4861340;29;20049;-92
2023/05/08 18:17:14;;;;;;;0.20;0.20;;;;;;;15.33;96.49;100515.53;4875295;29;20041;-92
2023/05/08 18:19:40;;;;;;;1.08;1.08;;;;;;;15.06;97.21;100500.63;4862907;29;20048;-92
2023/05/08 18:22:05;;;;;;;0.57;0.45;;;;;;;15.20;96.98;100533.63;4857493;29;20041;-92
2023/05/08 18:24:31;;;;;;;0.88;0.85;;;;;;;15.12;97.01;100538.72;4881161;29;20116;-92
2023/05/08 18:26:56;;;;;;;0.25;0.25;;;;;;;14.97;97.85;100514.53;4862947;29;20408;-91
2023/05/08 18:29:22;;;;;;;5.35;2.45;;;;;;;14.92;99.00;100527.09;4871116;29;20048;-92
2023/05/08 18:32:10;;;;;;;0.57;0.57;;;;;;;14.78;99.40;100506.03;4874693;29;20052;-92
2023/05/08 18:34:35;;;;;;;1.30;1.20;;;;;;;14.90;99.21;100544.28;4878265;29;20052;-91
2023/05/08 18:37:01;;;;;;;0.17;0.15;;;;;;;15.00;99.26;100561.13;4872501;29;20366;-92
2023/05/08 18:39:29;;;;;;;0.98;0.98;;;;;;;14.70;99.46;100543.81;4891328;29;20523;-92